createdAt,value
2022-10-30T00:02:40.252Z,98196.44
2022-10-30T00:07:41.882Z,98196.59
2022-10-30T00:12:44.360Z,98190.91
2022-10-30T00:17:45.874Z,98188.53
2022-10-30T00:22:47.478Z,98179.25
2022-10-30T00:27:49.055Z,98184.13
2022-10-30T00:32:50.585Z,98185.94
2022-10-30T00:37:52.170Z,98185.56
2022-10-30T00:42:54.340Z,98176.81
2022-10-30T00:48:00.100Z,98170.19
2022-10-30T00:53:08.984Z,98162.38
2022-10-30T00:58:20.723Z,98155.09
2022-10-30T01:03:24.652Z,98157.34
2022-10-30T01:08:26.581Z,98158.00
2022-10-30T01:13:30.129Z,98163.00
2022-10-30T01:18:45.949Z,98163.50
2022-10-30T01:24:01.164Z,98151.66
2022-10-30T01:29:19.793Z,98133.63
2022-10-30T01:34:30.713Z,98137.38
2022-10-30T01:39:39.390Z,98139.00
2022-10-30T01:44:41.379Z,98132.66
2022-10-30T01:50:48.734Z,98129.09
2022-10-30T01:55:57.361Z,98141.41
2022-10-30T02:01:00.551Z,98120.28
2022-10-30T02:06:05.123Z,98117.19
2022-10-30T02:11:06.771Z,98114.59
2022-10-30T02:16:13.318Z,98072.56
2022-10-30T02:21:18.637Z,98115.06
2022-10-30T02:26:20.227Z,98113.84
2022-10-30T02:31:21.838Z,98117.88
2022-10-30T02:36:23.371Z,98110.56
2022-10-30T02:41:24.971Z,98103.75
2022-10-30T02:46:26.532Z,98091.44
2022-10-30T02:51:28.212Z,98089.22
2022-10-30T02:56:29.850Z,98093.44
2022-10-30T03:01:31.618Z,98087.63
2022-10-30T03:06:34.480Z,98083.28
2022-10-30T03:11:36.125Z,98081.81
2022-10-30T03:16:38.284Z,98081.81
2022-10-30T03:21:39.833Z,98078.91
2022-10-30T03:26:41.473Z,98084.13
2022-10-30T03:31:43.150Z,98083.97
2022-10-30T03:36:49.202Z,98080.69
2022-10-30T03:41:50.781Z,98072.44
2022-10-30T03:46:52.535Z,98072.72
2022-10-30T03:52:14.355Z,98084.72
2022-10-30T03:57:15.915Z,98081.59
2022-10-30T04:02:48.566Z,98077.06
2022-10-30T04:07:56.835Z,98082.94
2022-10-30T04:13:01.162Z,98084.41
2022-10-30T04:18:03.229Z,98083.44
2022-10-30T04:23:08.020Z,98089.63
2022-10-30T04:28:10.499Z,98083.75
2022-10-30T04:33:13.715Z,98066.88
2022-10-30T04:38:16.349Z,98072.06
2022-10-30T04:43:18.971Z,98064.94
2022-10-30T04:48:24.480Z,98059.22
2022-10-30T04:53:26.321Z,98067.19
2022-10-30T04:58:34.425Z,98062.47
2022-10-30T05:03:39.526Z,98065.13
2022-10-30T05:08:48.075Z,98061.03
2022-10-30T05:14:00.585Z,98059.75
2022-10-30T05:19:02.185Z,98065.28
2022-10-30T05:24:04.312Z,98060.91
2022-10-30T05:29:13.847Z,98059.13
2022-10-30T05:34:15.602Z,98056.84
2022-10-30T05:39:19.200Z,98048.56
2022-10-30T05:44:34.726Z,98050.66
2022-10-30T05:49:45.734Z,98059.25
2022-10-30T05:54:51.988Z,98063.34
2022-10-30T06:00:00.927Z,98067.56
2022-10-30T06:05:02.786Z,98071.13
2022-10-30T06:10:04.941Z,98074.38
2022-10-30T06:15:31.031Z,98083.75
2022-10-30T06:20:32.955Z,98086.00
2022-10-30T06:25:53.142Z,98085.31
2022-10-30T06:31:06.193Z,98094.72
2022-10-30T06:36:09.523Z,98101.66
2022-10-30T06:41:11.897Z,98102.13
2022-10-30T06:46:32.475Z,98103.75
2022-10-30T06:51:35.453Z,98119.97
2022-10-30T06:56:37.952Z,98122.47
2022-10-30T07:02:11.635Z,98132.34
2022-10-30T07:07:19.619Z,98140.84
2022-10-30T07:12:21.308Z,98135.00
2022-10-30T07:17:32.405Z,98143.28
2022-10-30T07:22:39.572Z,98148.03
2022-10-30T07:27:47.564Z,98155.47
2022-10-30T07:33:12.228Z,98151.28
2022-10-30T07:38:35.704Z,98150.81
2022-10-30T07:43:57.509Z,98159.88
2022-10-30T07:49:17.752Z,98158.09
2022-10-30T07:54:32.347Z,98152.13
2022-10-30T07:59:43.717Z,98153.63
2022-10-30T08:04:54.908Z,98150.66
2022-10-30T08:10:16.987Z,98150.81
2022-10-30T08:15:18.606Z,98149.88
2022-10-30T08:20:22.493Z,98155.31
2022-10-30T08:25:28.893Z,98149.78
2022-10-30T08:30:34.799Z,98150.53
2022-10-30T08:35:37.633Z,98145.47
2022-10-30T08:40:39.184Z,98152.47
2022-10-30T08:45:42.147Z,98160.19
2022-10-30T08:50:46.854Z,98145.53
2022-10-30T08:55:54.210Z,98143.69
2022-10-30T09:01:01.888Z,98150.66
2022-10-30T09:06:23.464Z,98140.13
2022-10-30T09:11:49.083Z,98138.84
2022-10-30T09:16:50.698Z,98140.00
2022-10-30T09:21:55.485Z,98144.91
2022-10-30T09:26:57.114Z,98148.06
2022-10-30T09:32:00.839Z,98150.59
2022-10-30T09:37:05.842Z,98152.03
2022-10-30T09:42:25.456Z,98152.06
2022-10-30T09:47:51.691Z,98145.94
2022-10-30T09:53:05.482Z,98149.59
2022-10-30T09:58:42.336Z,98158.13
2022-10-30T10:03:48.109Z,98152.16
2022-10-30T10:09:22.350Z,98159.25
2022-10-30T10:14:38.058Z,98150.97
2022-10-30T10:19:49.291Z,98156.50
2022-10-30T10:24:51.863Z,98154.66
2022-10-30T10:30:01.135Z,98146.44
2022-10-30T10:35:24.929Z,98150.50
2022-10-30T10:40:26.455Z,98157.00
2022-10-30T10:45:48.580Z,98152.69
2022-10-30T10:51:12.689Z,98151.13
2022-10-30T10:56:14.894Z,98142.00
2022-10-30T11:01:27.305Z,98143.28
2022-10-30T11:06:34.999Z,98147.81
2022-10-30T11:11:37.234Z,98150.66
2022-10-30T11:16:52.610Z,98144.00
2022-10-30T11:21:56.282Z,98138.72
2022-10-30T11:27:16.742Z,98127.88
2022-10-30T11:32:22.660Z,98137.88
2022-10-30T11:37:35.429Z,98131.00
2022-10-30T11:42:39.653Z,98124.19
2022-10-30T11:47:42.083Z,98123.44
2022-10-30T11:52:44.495Z,98119.63
2022-10-30T11:57:57.560Z,98116.00
2022-10-30T12:03:01.234Z,98120.69
2022-10-30T12:08:09.085Z,98121.06
2022-10-30T12:13:18.745Z,98118.13
2022-10-30T12:18:25.516Z,98109.25
2022-10-30T12:23:28.865Z,98115.09
2022-10-30T12:28:33.064Z,98107.75
2022-10-30T12:33:42.153Z,98101.63
2022-10-30T12:38:47.408Z,98100.00
2022-10-30T12:44:02.897Z,98102.25
2022-10-30T12:49:39.981Z,98091.47
2022-10-30T12:54:44.543Z,98083.78
2022-10-30T13:00:05.146Z,98090.75
2022-10-30T13:05:21.911Z,98089.72
2022-10-30T13:10:56.659Z,98083.28
2022-10-30T13:16:00.360Z,98081.81
2022-10-30T13:21:15.141Z,98071.22
2022-10-30T13:26:16.691Z,98076.00
2022-10-30T13:31:47.767Z,98065.41
2022-10-30T13:36:57.950Z,98060.72
2022-10-30T13:42:18.036Z,98056.72
2022-10-30T13:47:49.164Z,98054.56
2022-10-30T13:52:56.793Z,98064.38
2022-10-30T13:58:12.718Z,98065.56
2022-10-30T14:03:23.543Z,98064.44
2022-10-30T14:08:40.932Z,98061.38
2022-10-30T14:13:54.858Z,98064.19
2022-10-30T14:19:01.685Z,98067.00
2022-10-30T14:24:10.886Z,98065.03
2022-10-30T14:29:37.559Z,98060.84
2022-10-30T14:34:51.472Z,98063.16
2022-10-30T14:39:54.585Z,98058.03
2022-10-30T14:45:21.010Z,98054.03
2022-10-30T14:50:34.990Z,98056.03
2022-10-30T14:56:14.014Z,98059.25
2022-10-30T15:01:44.759Z,98059.72
2022-10-30T15:07:00.336Z,98055.41
2022-10-30T15:12:30.054Z,98057.66
2022-10-30T15:17:41.016Z,98057.44
2022-10-30T15:22:42.827Z,98057.06
2022-10-30T15:27:47.421Z,98056.53
2022-10-30T15:32:49.070Z,98061.38
2022-10-30T15:38:08.221Z,98061.72
2022-10-30T15:43:13.936Z,98061.50
2022-10-30T15:48:26.527Z,98062.13
2022-10-30T15:53:40.581Z,98066.56
2022-10-30T15:58:42.200Z,98061.38
2022-10-30T16:03:52.945Z,98071.00
2022-10-30T16:08:54.537Z,98068.19
2022-10-30T16:13:56.328Z,98066.78
2022-10-30T16:19:00.967Z,98065.91
2022-10-30T16:24:04.494Z,98067.69
2022-10-30T16:29:23.155Z,98066.78
2022-10-30T16:34:36.171Z,98074.91
2022-10-30T16:39:38.886Z,98063.91
2022-10-30T16:44:40.552Z,98062.16
2022-10-30T16:49:49.485Z,98066.44
2022-10-30T16:55:29.525Z,98079.47
2022-10-30T17:00:36.575Z,98064.16
2022-10-30T17:05:40.181Z,98073.88
2022-10-30T17:10:47.871Z,98072.59
2022-10-30T17:15:49.511Z,98087.41
2022-10-30T17:21:16.455Z,98087.00
2022-10-30T17:26:18.904Z,98087.41
2022-10-30T17:31:38.090Z,98094.91
2022-10-30T17:36:40.747Z,98095.84
2022-10-30T17:41:43.366Z,98093.50
2022-10-30T17:46:45.046Z,98101.41
2022-10-30T17:56:53.185Z,98108.09
2022-10-30T18:01:54.857Z,98116.31
2022-10-30T18:06:56.561Z,98111.19
2022-10-30T18:11:58.141Z,98108.19
2022-10-30T18:16:59.854Z,98108.09
2022-10-30T18:22:02.239Z,98102.41
2022-10-30T18:27:03.840Z,98108.50
2022-10-30T18:32:09.590Z,98107.56
2022-10-30T18:37:11.498Z,98107.97
2022-10-30T18:42:13.123Z,98107.69
2022-10-30T18:47:14.658Z,98109.53
2022-10-30T18:52:16.232Z,98114.63
2022-10-30T18:57:17.911Z,98117.25
2022-10-30T19:02:23.248Z,98115.50
2022-10-30T19:07:24.875Z,98111.31
2022-10-30T19:12:26.482Z,98113.47
2022-10-30T19:17:28.028Z,98123.06
2022-10-30T19:22:30.140Z,98118.88
2022-10-30T19:27:31.690Z,98120.50
2022-10-30T19:32:33.283Z,98115.84
2022-10-30T19:37:37.038Z,98119.59
2022-10-30T19:42:39.380Z,98132.25
2022-10-30T19:47:42.626Z,98132.56
2022-10-30T19:52:44.173Z,98126.56
2022-10-30T19:57:46.418Z,98125.94
2022-10-30T20:02:48.342Z,98133.06
2022-10-30T20:08:05.368Z,98147.72
2022-10-30T20:13:08.704Z,98142.56
2022-10-30T20:18:25.278Z,98149.84
2022-10-30T20:23:27.887Z,98151.00
2022-10-30T20:28:38.353Z,98153.44
2022-10-30T20:33:40.202Z,98165.81
2022-10-30T20:38:41.820Z,98160.28
2022-10-30T20:43:43.358Z,98170.31
2022-10-30T20:48:44.924Z,98169.03
2022-10-30T20:53:46.599Z,98172.91
2022-10-30T20:58:48.234Z,98179.06
2022-10-30T21:03:50.799Z,98176.44
2022-10-30T21:08:52.326Z,98181.78
2022-10-30T21:13:56.439Z,98187.44
2022-10-30T21:18:58.008Z,98187.78
2022-10-30T21:23:59.569Z,98190.53
2022-10-30T21:29:01.507Z,98194.72
2022-10-30T21:34:03.088Z,98189.66
2022-10-30T21:39:05.631Z,98193.88
2022-10-30T21:44:07.214Z,98181.31
2022-10-30T21:49:13.164Z,98188.13
2022-10-30T21:54:15.480Z,98189.63
2022-10-30T21:59:17.128Z,98194.66
2022-10-30T22:04:19.693Z,98191.72
2022-10-30T22:09:21.294Z,98196.25
2022-10-30T22:14:24.645Z,98188.13
2022-10-30T22:19:26.258Z,98191.53
2022-10-30T22:24:27.796Z,98192.16
2022-10-30T22:29:29.356Z,98186.81
2022-10-30T22:34:30.976Z,98194.84
2022-10-30T22:39:32.662Z,98186.72
2022-10-30T22:44:34.216Z,98196.03
2022-10-30T22:49:35.734Z,98203.59
2022-10-30T22:54:37.262Z,98191.91
2022-10-30T22:59:38.996Z,98198.22
2022-10-30T23:04:40.550Z,98204.28
2022-10-30T23:09:42.218Z,98209.34
2022-10-30T23:14:43.774Z,98209.47
2022-10-30T23:19:48.531Z,98202.56
2022-10-30T23:24:50.154Z,98208.72
2022-10-30T23:29:51.722Z,98208.84
2022-10-30T23:34:53.276Z,98210.09
2022-10-30T23:39:54.889Z,98222.81
2022-10-30T23:44:56.435Z,98218.41
2022-10-30T23:49:57.977Z,98217.25
2022-10-30T23:54:59.573Z,98221.47
